sensor_id;sensor_type;location;lat;lon;timestamp;P1;durP1;ratioP1;P2;durP2;ratioP2
18076;SDS011;9165;45.714;11.362;2022-10-04T00:01:42;19.47;;;14.03;;
18076;SDS011;9165;45.714;11.362;2022-10-04T00:04:10;21.90;;;15.90;;
18076;SDS011;9165;45.714;11.362;2022-10-04T00:06:42;18.00;;;13.27;;
18076;SDS011;9165;45.714;11.362;2022-10-04T00:09:13;18.83;;;14.80;;
18076;SDS011;9165;45.714;11.362;2022-10-04T00:11:42;19.23;;;13.77;;
18076;SDS011;9165;45.714;11.362;2022-10-04T00:14:13;16.00;;;12.90;;
18076;SDS011;9165;45.714;11.362;2022-10-04T00:16:41;17.60;;;13.57;;
18076;SDS011;9165;45.714;11.362;2022-10-04T00:19:35;17.80;;;14.77;;
18076;SDS011;9165;45.714;11.362;2022-10-04T00:22:13;19.30;;;13.60;;
18076;SDS011;9165;45.714;11.362;2022-10-04T00:30:22;18.20;;;12.93;;
18076;SDS011;9165;45.714;11.362;2022-10-04T00:32:58;19.73;;;15.10;;
18076;SDS011;9165;45.714;11.362;2022-10-04T00:38:13;20.03;;;14.50;;
18076;SDS011;9165;45.714;11.362;2022-10-04T00:40:41;19.07;;;13.80;;
18076;SDS011;9165;45.714;11.362;2022-10-04T00:43:11;21.40;;;15.10;;
18076;SDS011;9165;45.714;11.362;2022-10-04T00:45:42;18.50;;;14.30;;
18076;SDS011;9165;45.714;11.362;2022-10-04T00:48:23;19.33;;;14.13;;
18076;SDS011;9165;45.714;11.362;2022-10-04T00:50:53;22.43;;;14.00;;
18076;SDS011;9165;45.714;11.362;2022-10-04T00:53:25;17.57;;;13.70;;
18076;SDS011;9165;45.714;11.362;2022-10-04T00:55:53;16.87;;;13.77;;
18076;SDS011;9165;45.714;11.362;2022-10-04T00:58:21;17.97;;;13.07;;
18076;SDS011;9165;45.714;11.362;2022-10-04T01:00:49;23.30;;;14.07;;
18076;SDS011;9165;45.714;11.362;2022-10-04T01:03:18;19.90;;;13.10;;
18076;SDS011;9165;45.714;11.362;2022-10-04T01:05:47;18.13;;;13.27;;
18076;SDS011;9165;45.714;11.362;2022-10-04T01:08:16;19.27;;;13.50;;
18076;SDS011;9165;45.714;11.362;2022-10-04T01:10:46;17.63;;;13.43;;
18076;SDS011;9165;45.714;11.362;2022-10-04T01:13:16;18.53;;;12.23;;
18076;SDS011;9165;45.714;11.362;2022-10-04T01:15:46;13.93;;;12.07;;
18076;SDS011;9165;45.714;11.362;2022-10-04T01:18:15;13.03;;;11.37;;
18076;SDS011;9165;45.714;11.362;2022-10-04T01:20:48;20.37;;;12.77;;
18076;SDS011;9165;45.714;11.362;2022-10-04T01:25:58;16.03;;;12.77;;
18076;SDS011;9165;45.714;11.362;2022-10-04T01:28:25;19.40;;;12.87;;
18076;SDS011;9165;45.714;11.362;2022-10-04T01:30:52;15.00;;;11.67;;
18076;SDS011;9165;45.714;11.362;2022-10-04T01:33:19;15.50;;;11.77;;
18076;SDS011;9165;45.714;11.362;2022-10-04T01:35:46;15.97;;;11.03;;
18076;SDS011;9165;45.714;11.362;2022-10-04T01:38:13;16.77;;;12.50;;
18076;SDS011;9165;45.714;11.362;2022-10-04T01:40:41;17.50;;;10.50;;
18076;SDS011;9165;45.714;11.362;2022-10-04T01:43:13;15.73;;;12.57;;
18076;SDS011;9165;45.714;11.362;2022-10-04T01:45:43;15.03;;;11.57;;
18076;SDS011;9165;45.714;11.362;2022-10-04T01:48:13;19.23;;;11.60;;
18076;SDS011;9165;45.714;11.362;2022-10-04T01:50:41;13.67;;;11.00;;
18076;SDS011;9165;45.714;11.362;2022-10-04T01:53:11;17.43;;;12.07;;
18076;SDS011;9165;45.714;11.362;2022-10-04T01:55:38;20.20;;;12.07;;
18076;SDS011;9165;45.714;11.362;2022-10-04T01:58:07;13.47;;;11.17;;
18076;SDS011;9165;45.714;11.362;2022-10-04T02:00:36;14.43;;;12.13;;
18076;SDS011;9165;45.714;11.362;2022-10-04T02:03:07;20.27;;;12.83;;
18076;SDS011;9165;45.714;11.362;2022-10-04T02:05:36;14.60;;;10.63;;
18076;SDS011;9165;45.714;11.362;2022-10-04T02:08:04;16.57;;;11.63;;
18076;SDS011;9165;45.714;11.362;2022-10-04T02:10:33;12.93;;;11.00;;
18076;SDS011;9165;45.714;11.362;2022-10-04T02:13:06;18.00;;;12.53;;
18076;SDS011;9165;45.714;11.362;2022-10-04T02:15:34;17.13;;;12.53;;
18076;SDS011;9165;45.714;11.362;2022-10-04T02:18:04;16.83;;;12.97;;
18076;SDS011;9165;45.714;11.362;2022-10-04T02:20:35;19.47;;;14.37;;
18076;SDS011;9165;45.714;11.362;2022-10-04T02:23:04;17.47;;;14.27;;
18076;SDS011;9165;45.714;11.362;2022-10-04T02:25:31;19.83;;;15.73;;
18076;SDS011;9165;45.714;11.362;2022-10-04T02:27:58;20.10;;;14.03;;
18076;SDS011;9165;45.714;11.362;2022-10-04T02:30:24;13.60;;;11.57;;
18076;SDS011;9165;45.714;11.362;2022-10-04T02:32:51;14.17;;;11.57;;
18076;SDS011;9165;45.714;11.362;2022-10-04T02:35:26;13.63;;;11.40;;
18076;SDS011;9165;45.714;11.362;2022-10-04T02:38:05;15.33;;;10.57;;
18076;SDS011;9165;45.714;11.362;2022-10-04T02:40:35;12.47;;;10.57;;
18076;SDS011;9165;45.714;11.362;2022-10-04T02:43:07;13.50;;;10.37;;
18076;SDS011;9165;45.714;11.362;2022-10-04T02:45:36;14.77;;;10.53;;
18076;SDS011;9165;45.714;11.362;2022-10-04T02:48:21;14.27;;;10.57;;
18076;SDS011;9165;45.714;11.362;2022-10-04T02:50:53;13.53;;;10.70;;
18076;SDS011;9165;45.714;11.362;2022-10-04T02:53:22;11.87;;;10.30;;
18076;SDS011;9165;45.714;11.362;2022-10-04T02:55:51;14.67;;;10.10;;
18076;SDS011;9165;45.714;11.362;2022-10-04T02:58:20;11.00;;;9.57;;
18076;SDS011;9165;45.714;11.362;2022-10-04T03:00:48;12.00;;;9.63;;
18076;SDS011;9165;45.714;11.362;2022-10-04T03:03:16;11.07;;;9.60;;
18076;SDS011;9165;45.714;11.362;2022-10-04T03:05:45;10.77;;;8.17;;
18076;SDS011;9165;45.714;11.362;2022-10-04T03:08:19;9.80;;;8.73;;
18076;SDS011;9165;45.714;11.362;2022-10-04T03:10:46;11.70;;;9.23;;
18076;SDS011;9165;45.714;11.362;2022-10-04T03:13:13;9.10;;;7.83;;
18076;SDS011;9165;45.714;11.362;2022-10-04T03:15:40;10.03;;;7.23;;
18076;SDS011;9165;45.714;11.362;2022-10-04T03:18:08;9.53;;;7.53;;
18076;SDS011;9165;45.714;11.362;2022-10-04T03:20:35;9.27;;;7.80;;
18076;SDS011;9165;45.714;11.362;2022-10-04T03:23:02;10.53;;;8.73;;
18076;SDS011;9165;45.714;11.362;2022-10-04T03:25:34;11.77;;;10.40;;
18076;SDS011;9165;45.714;11.362;2022-10-04T03:28:03;13.07;;;9.63;;
18076;SDS011;9165;45.714;11.362;2022-10-04T03:30:30;14.30;;;10.63;;
18076;SDS011;9165;45.714;11.362;2022-10-04T03:32:57;13.40;;;10.77;;
18076;SDS011;9165;45.714;11.362;2022-10-04T03:35:26;14.20;;;10.37;;
18076;SDS011;9165;45.714;11.362;2022-10-04T03:37:53;15.57;;;10.67;;
18076;SDS011;9165;45.714;11.362;2022-10-04T03:40:20;17.87;;;12.70;;
18076;SDS011;9165;45.714;11.362;2022-10-04T03:42:52;14.50;;;11.87;;
18076;SDS011;9165;45.714;11.362;2022-10-04T03:45:19;15.43;;;11.90;;
18076;SDS011;9165;45.714;11.362;2022-10-04T03:47:47;15.20;;;11.33;;
18076;SDS011;9165;45.714;11.362;2022-10-04T03:50:15;18.87;;;11.57;;
18076;SDS011;9165;45.714;11.362;2022-10-04T03:52:43;12.17;;;10.30;;
18076;SDS011;9165;45.714;11.362;2022-10-04T03:55:11;15.37;;;10.83;;
18076;SDS011;9165;45.714;11.362;2022-10-04T03:57:40;118.30;;;100.13;;
18076;SDS011;9165;45.714;11.362;2022-10-04T04:00:13;693.77;;;364.97;;
18076;SDS011;9165;45.714;11.362;2022-10-04T04:02:41;698.60;;;384.80;;
18076;SDS011;9165;45.714;11.362;2022-10-04T04:05:09;675.37;;;392.77;;
18076;SDS011;9165;45.714;11.362;2022-10-04T04:07:42;664.33;;;318.30;;
18076;SDS011;9165;45.714;11.362;2022-10-04T04:10:12;657.30;;;295.27;;
18076;SDS011;9165;45.714;11.362;2022-10-04T04:12:42;437.97;;;210.37;;
18076;SDS011;9165;45.714;11.362;2022-10-04T04:15:14;15.93;;;9.90;;
18076;SDS011;9165;45.714;11.362;2022-10-04T04:17:42;13.63;;;10.03;;
18076;SDS011;9165;45.714;11.362;2022-10-04T04:20:15;13.17;;;10.77;;
18076;SDS011;9165;45.714;11.362;2022-10-04T04:22:43;14.43;;;9.87;;
18076;SDS011;9165;45.714;11.362;2022-10-04T04:25:11;14.23;;;10.00;;
18076;SDS011;9165;45.714;11.362;2022-10-04T04:27:39;17.33;;;9.07;;
18076;SDS011;9165;45.714;11.362;2022-10-04T04:30:07;16.93;;;9.93;;
18076;SDS011;9165;45.714;11.362;2022-10-04T04:32:36;10.50;;;9.03;;
18076;SDS011;9165;45.714;11.362;2022-10-04T04:35:05;16.50;;;11.67;;
18076;SDS011;9165;45.714;11.362;2022-10-04T04:37:32;12.37;;;9.90;;
18076;SDS011;9165;45.714;11.362;2022-10-04T04:40:09;12.87;;;10.40;;
18076;SDS011;9165;45.714;11.362;2022-10-04T04:42:36;13.73;;;10.73;;
18076;SDS011;9165;45.714;11.362;2022-10-04T04:45:04;23.30;;;10.93;;
18076;SDS011;9165;45.714;11.362;2022-10-04T04:47:32;16.47;;;9.63;;
18076;SDS011;9165;45.714;11.362;2022-10-04T04:50:04;15.73;;;9.90;;
18076;SDS011;9165;45.714;11.362;2022-10-04T04:52:31;13.93;;;9.93;;
18076;SDS011;9165;45.714;11.362;2022-10-04T04:54:59;13.63;;;9.97;;
18076;SDS011;9165;45.714;11.362;2022-10-04T04:57:26;14.43;;;9.57;;
18076;SDS011;9165;45.714;11.362;2022-10-04T04:59:53;11.53;;;9.90;;
18076;SDS011;9165;45.714;11.362;2022-10-04T05:02:32;12.37;;;8.47;;
18076;SDS011;9165;45.714;11.362;2022-10-04T05:05:11;12.03;;;10.10;;
18076;SDS011;9165;45.714;11.362;2022-10-04T05:07:40;16.07;;;9.87;;
18076;SDS011;9165;45.714;11.362;2022-10-04T05:10:18;15.50;;;10.10;;
18076;SDS011;9165;45.714;11.362;2022-10-04T05:12:45;13.30;;;10.33;;
18076;SDS011;9165;45.714;11.362;2022-10-04T05:15:12;11.33;;;10.13;;
18076;SDS011;9165;45.714;11.362;2022-10-04T05:17:39;14.30;;;10.83;;
18076;SDS011;9165;45.714;11.362;2022-10-04T05:20:05;11.40;;;9.50;;
18076;SDS011;9165;45.714;11.362;2022-10-04T05:22:33;14.73;;;10.50;;
18076;SDS011;9165;45.714;11.362;2022-10-04T05:25:01;14.93;;;10.07;;
18076;SDS011;9165;45.714;11.362;2022-10-04T05:27:29;13.57;;;9.60;;
18076;SDS011;9165;45.714;11.362;2022-10-04T05:29:59;13.20;;;10.13;;
18076;SDS011;9165;45.714;11.362;2022-10-04T05:32:28;13.97;;;9.90;;
18076;SDS011;9165;45.714;11.362;2022-10-04T05:34:59;12.17;;;10.13;;
18076;SDS011;9165;45.714;11.362;2022-10-04T05:37:34;15.87;;;8.90;;
18076;SDS011;9165;45.714;11.362;2022-10-04T05:40:07;37.77;;;34.90;;
18076;SDS011;9165;45.714;11.362;2022-10-04T05:42:41;14.27;;;10.20;;
18076;SDS011;9165;45.714;11.362;2022-10-04T05:45:13;11.13;;;9.20;;
18076;SDS011;9165;45.714;11.362;2022-10-04T05:47:40;12.87;;;9.23;;
18076;SDS011;9165;45.714;11.362;2022-10-04T05:50:12;15.83;;;10.73;;
18076;SDS011;9165;45.714;11.362;2022-10-04T05:52:41;15.23;;;11.33;;
18076;SDS011;9165;45.714;11.362;2022-10-04T06:00:35;11.87;;;9.70;;
18076;SDS011;9165;45.714;11.362;2022-10-04T06:03:11;13.47;;;10.40;;
18076;SDS011;9165;45.714;11.362;2022-10-04T06:05:43;13.67;;;9.67;;
18076;SDS011;9165;45.714;11.362;2022-10-04T06:08:16;12.43;;;9.53;;
18076;SDS011;9165;45.714;11.362;2022-10-04T06:10:50;10.23;;;9.13;;
18076;SDS011;9165;45.714;11.362;2022-10-04T06:13:23;17.80;;;10.03;;
18076;SDS011;9165;45.714;11.362;2022-10-04T06:15:55;16.97;;;9.97;;
18076;SDS011;9165;45.714;11.362;2022-10-04T06:18:29;14.17;;;9.87;;
18076;SDS011;9165;45.714;11.362;2022-10-04T06:21:10;13.00;;;9.60;;
18076;SDS011;9165;45.714;11.362;2022-10-04T06:23:44;12.93;;;9.17;;
18076;SDS011;9165;45.714;11.362;2022-10-04T06:26:12;13.70;;;10.13;;
18076;SDS011;9165;45.714;11.362;2022-10-04T06:28:44;15.97;;;9.87;;
18076;SDS011;9165;45.714;11.362;2022-10-04T06:31:22;10.57;;;9.23;;
18076;SDS011;9165;45.714;11.362;2022-10-04T06:33:57;13.17;;;10.63;;
18076;SDS011;9165;45.714;11.362;2022-10-04T06:36:45;14.07;;;10.90;;
18076;SDS011;9165;45.714;11.362;2022-10-04T06:39:25;12.50;;;10.03;;
18076;SDS011;9165;45.714;11.362;2022-10-04T06:42:03;13.90;;;10.37;;
18076;SDS011;9165;45.714;11.362;2022-10-04T06:44:43;46.87;;;30.80;;
18076;SDS011;9165;45.714;11.362;2022-10-04T06:47:17;10.43;;;9.43;;
18076;SDS011;9165;45.714;11.362;2022-10-04T06:49:47;12.37;;;9.90;;
18076;SDS011;9165;45.714;11.362;2022-10-04T06:52:19;20.07;;;10.20;;
18076;SDS011;9165;45.714;11.362;2022-10-04T06:57:51;11.43;;;10.23;;
18076;SDS011;9165;45.714;11.362;2022-10-04T07:00:22;14.90;;;10.20;;
18076;SDS011;9165;45.714;11.362;2022-10-04T07:02:58;17.67;;;10.13;;
18076;SDS011;9165;45.714;11.362;2022-10-04T07:05:30;11.50;;;10.27;;
18076;SDS011;9165;45.714;11.362;2022-10-04T07:08:02;15.03;;;10.30;;
18076;SDS011;9165;45.714;11.362;2022-10-04T07:10:32;14.37;;;11.23;;
18076;SDS011;9165;45.714;11.362;2022-10-04T07:15:49;11.80;;;10.33;;
18076;SDS011;9165;45.714;11.362;2022-10-04T07:18:19;14.03;;;11.20;;
18076;SDS011;9165;45.714;11.362;2022-10-04T07:20:47;13.37;;;10.17;;
18076;SDS011;9165;45.714;11.362;2022-10-04T07:23:15;32.30;;;11.60;;
18076;SDS011;9165;45.714;11.362;2022-10-04T07:25:47;14.77;;;11.10;;
18076;SDS011;9165;45.714;11.362;2022-10-04T07:28:16;12.23;;;9.63;;
18076;SDS011;9165;45.714;11.362;2022-10-04T07:31:08;15.10;;;9.93;;
18076;SDS011;9165;45.714;11.362;2022-10-04T07:33:42;11.83;;;9.43;;
18076;SDS011;9165;45.714;11.362;2022-10-04T07:36:10;15.90;;;10.03;;
18076;SDS011;9165;45.714;11.362;2022-10-04T07:38:38;18.90;;;9.20;;
18076;SDS011;9165;45.714;11.362;2022-10-04T07:41:09;12.60;;;9.20;;
18076;SDS011;9165;45.714;11.362;2022-10-04T07:43:43;10.53;;;9.13;;
18076;SDS011;9165;45.714;11.362;2022-10-04T07:46:13;12.47;;;8.27;;
18076;SDS011;9165;45.714;11.362;2022-10-04T07:48:42;10.27;;;8.00;;
18076;SDS011;9165;45.714;11.362;2022-10-04T07:51:16;8.17;;;7.13;;
18076;SDS011;9165;45.714;11.362;2022-10-04T07:53:44;9.80;;;6.17;;
18076;SDS011;9165;45.714;11.362;2022-10-04T07:56:16;7.83;;;6.43;;
18076;SDS011;9165;45.714;11.362;2022-10-04T07:58:46;6.73;;;6.03;;
18076;SDS011;9165;45.714;11.362;2022-10-04T08:01:18;9.50;;;6.43;;
18076;SDS011;9165;45.714;11.362;2022-10-04T08:03:50;7.43;;;5.93;;
18076;SDS011;9165;45.714;11.362;2022-10-04T08:06:24;9.57;;;6.83;;
18076;SDS011;9165;45.714;11.362;2022-10-04T08:09:01;9.27;;;6.40;;
18076;SDS011;9165;45.714;11.362;2022-10-04T08:11:34;9.57;;;6.90;;
18076;SDS011;9165;45.714;11.362;2022-10-04T08:14:07;8.07;;;6.37;;
18076;SDS011;9165;45.714;11.362;2022-10-04T08:16:40;11.17;;;6.03;;
18076;SDS011;9165;45.714;11.362;2022-10-04T08:19:14;5.77;;;5.10;;
18076;SDS011;9165;45.714;11.362;2022-10-04T08:21:46;8.23;;;5.67;;
18076;SDS011;9165;45.714;11.362;2022-10-04T08:24:14;8.97;;;5.70;;
18076;SDS011;9165;45.714;11.362;2022-10-04T08:26:48;6.77;;;5.27;;
18076;SDS011;9165;45.714;11.362;2022-10-04T08:29:28;7.10;;;5.10;;
18076;SDS011;9165;45.714;11.362;2022-10-04T08:32:12;7.23;;;5.40;;
18076;SDS011;9165;45.714;11.362;2022-10-04T08:34:48;6.40;;;5.00;;
18076;SDS011;9165;45.714;11.362;2022-10-04T08:37:22;5.73;;;4.43;;
18076;SDS011;9165;45.714;11.362;2022-10-04T08:39:55;6.57;;;4.20;;
18076;SDS011;9165;45.714;11.362;2022-10-04T08:53:56;4.50;;;3.63;;
18076;SDS011;9165;45.714;11.362;2022-10-04T08:56:35;5.33;;;4.33;;
18076;SDS011;9165;45.714;11.362;2022-10-04T08:59:17;6.67;;;3.97;;
18076;SDS011;9165;45.714;11.362;2022-10-04T09:04:55;7.43;;;4.47;;
18076;SDS011;9165;45.714;11.362;2022-10-04T09:13:05;5.60;;;4.50;;
18076;SDS011;9165;45.714;11.362;2022-10-04T09:15:44;6.20;;;4.43;;
18076;SDS011;9165;45.714;11.362;2022-10-04T09:20:59;4.53;;;4.13;;
18076;SDS011;9165;45.714;11.362;2022-10-04T09:23:38;6.00;;;5.03;;
18076;SDS011;9165;45.714;11.362;2022-10-04T09:26:13;4.77;;;3.77;;
18076;SDS011;9165;45.714;11.362;2022-10-04T09:34:25;7.93;;;4.63;;
18076;SDS011;9165;45.714;11.362;2022-10-04T09:39:49;6.40;;;5.13;;
18076;SDS011;9165;45.714;11.362;2022-10-04T09:45:09;6.47;;;5.30;;
18076;SDS011;9165;45.714;11.362;2022-10-04T09:47:42;6.73;;;5.20;;
18076;SDS011;9165;45.714;11.362;2022-10-04T09:50:27;7.13;;;5.90;;
18076;SDS011;9165;45.714;11.362;2022-10-04T09:53:04;9.70;;;5.90;;
18076;SDS011;9165;45.714;11.362;2022-10-04T09:55:35;9.30;;;4.80;;
18076;SDS011;9165;45.714;11.362;2022-10-04T09:58:29;6.40;;;5.33;;
18076;SDS011;9165;45.714;11.362;2022-10-04T10:01:02;6.20;;;5.60;;
18076;SDS011;9165;45.714;11.362;2022-10-04T10:03:37;9.57;;;5.97;;
18076;SDS011;9165;45.714;11.362;2022-10-04T10:09:00;14.13;;;6.73;;
18076;SDS011;9165;45.714;11.362;2022-10-04T10:11:33;9.80;;;6.40;;
18076;SDS011;9165;45.714;11.362;2022-10-04T10:14:35;14.90;;;7.57;;
18076;SDS011;9165;45.714;11.362;2022-10-04T10:17:06;8.63;;;6.63;;
18076;SDS011;9165;45.714;11.362;2022-10-04T10:22:26;11.67;;;7.60;;
18076;SDS011;9165;45.714;11.362;2022-10-04T10:25:05;8.73;;;6.53;;
18076;SDS011;9165;45.714;11.362;2022-10-04T10:27:45;8.73;;;6.47;;
18076;SDS011;9165;45.714;11.362;2022-10-04T10:30:17;10.80;;;7.30;;
18076;SDS011;9165;45.714;11.362;2022-10-04T10:35:41;8.83;;;7.00;;
18076;SDS011;9165;45.714;11.362;2022-10-04T10:41:23;8.63;;;6.27;;
18076;SDS011;9165;45.714;11.362;2022-10-04T10:44:03;9.17;;;7.13;;
18076;SDS011;9165;45.714;11.362;2022-10-04T10:46:43;9.00;;;6.73;;
18076;SDS011;9165;45.714;11.362;2022-10-04T10:49:17;7.40;;;6.53;;
18076;SDS011;9165;45.714;11.362;2022-10-04T10:51:57;9.13;;;6.17;;
18076;SDS011;9165;45.714;11.362;2022-10-04T10:54:32;8.53;;;7.17;;
18076;SDS011;9165;45.714;11.362;2022-10-04T10:57:06;8.67;;;6.57;;
18076;SDS011;9165;45.714;11.362;2022-10-04T11:05:21;12.37;;;7.73;;
18076;SDS011;9165;45.714;11.362;2022-10-04T11:07:50;12.07;;;8.40;;
18076;SDS011;9165;45.714;11.362;2022-10-04T11:13:09;11.83;;;9.03;;
18076;SDS011;9165;45.714;11.362;2022-10-04T11:18:36;9.67;;;7.93;;
18076;SDS011;9165;45.714;11.362;2022-10-04T11:21:31;11.93;;;8.47;;
18076;SDS011;9165;45.714;11.362;2022-10-04T11:26:58;9.70;;;7.80;;
18076;SDS011;9165;45.714;11.362;2022-10-04T11:29:41;12.70;;;9.20;;
18076;SDS011;9165;45.714;11.362;2022-10-04T11:35:29;11.63;;;8.53;;
18076;SDS011;9165;45.714;11.362;2022-10-04T11:38:01;7.63;;;6.43;;
18076;SDS011;9165;45.714;11.362;2022-10-04T11:40:38;9.23;;;7.40;;
18076;SDS011;9165;45.714;11.362;2022-10-04T11:43:15;9.17;;;7.80;;
18076;SDS011;9165;45.714;11.362;2022-10-04T11:45:53;13.57;;;9.27;;
18076;SDS011;9165;45.714;11.362;2022-10-04T11:48:25;10.10;;;8.90;;
18076;SDS011;9165;45.714;11.362;2022-10-04T11:59:26;12.70;;;8.00;;
18076;SDS011;9165;45.714;11.362;2022-10-04T12:07:36;16.80;;;9.20;;
18076;SDS011;9165;45.714;11.362;2022-10-04T12:10:10;14.60;;;8.97;;
18076;SDS011;9165;45.714;11.362;2022-10-04T12:12:42;12.10;;;9.23;;
18076;SDS011;9165;45.714;11.362;2022-10-04T12:15:25;10.63;;;6.17;;
18076;SDS011;9165;45.714;11.362;2022-10-04T12:20:53;8.77;;;7.43;;
18076;SDS011;9165;45.714;11.362;2022-10-04T12:23:35;11.43;;;8.63;;
18076;SDS011;9165;45.714;11.362;2022-10-04T12:26:12;17.30;;;9.13;;
18076;SDS011;9165;45.714;11.362;2022-10-04T12:31:22;10.53;;;8.80;;
18076;SDS011;9165;45.714;11.362;2022-10-04T12:33:51;11.13;;;9.63;;
18076;SDS011;9165;45.714;11.362;2022-10-04T12:36:28;11.00;;;8.67;;
18076;SDS011;9165;45.714;11.362;2022-10-04T12:39:10;16.43;;;10.80;;
18076;SDS011;9165;45.714;11.362;2022-10-04T12:41:41;18.37;;;12.90;;
18076;SDS011;9165;45.714;11.362;2022-10-04T12:44:20;17.80;;;11.30;;
18076;SDS011;9165;45.714;11.362;2022-10-04T12:46:53;13.53;;;9.97;;
18076;SDS011;9165;45.714;11.362;2022-10-04T12:49:24;12.47;;;9.73;;
18076;SDS011;9165;45.714;11.362;2022-10-04T12:51:56;18.10;;;10.40;;
18076;SDS011;9165;45.714;11.362;2022-10-04T13:00:12;10.17;;;8.90;;
18076;SDS011;9165;45.714;11.362;2022-10-04T13:02:54;13.20;;;9.67;;
18076;SDS011;9165;45.714;11.362;2022-10-04T13:05:23;15.53;;;10.17;;
18076;SDS011;9165;45.714;11.362;2022-10-04T13:08:07;14.80;;;10.70;;
18076;SDS011;9165;45.714;11.362;2022-10-04T13:10:49;12.70;;;9.73;;
18076;SDS011;9165;45.714;11.362;2022-10-04T13:16:09;14.83;;;9.97;;
18076;SDS011;9165;45.714;11.362;2022-10-04T13:18:39;14.67;;;9.77;;
18076;SDS011;9165;45.714;11.362;2022-10-04T13:21:09;13.30;;;9.60;;
18076;SDS011;9165;45.714;11.362;2022-10-04T13:23:44;12.57;;;9.20;;
18076;SDS011;9165;45.714;11.362;2022-10-04T13:26:25;12.37;;;9.13;;
18076;SDS011;9165;45.714;11.362;2022-10-04T13:29:00;13.70;;;11.80;;
18076;SDS011;9165;45.714;11.362;2022-10-04T13:31:32;15.13;;;10.73;;
18076;SDS011;9165;45.714;11.362;2022-10-04T13:34:07;15.20;;;9.97;;
18076;SDS011;9165;45.714;11.362;2022-10-04T13:36:44;16.37;;;10.33;;
18076;SDS011;9165;45.714;11.362;2022-10-04T13:42:06;13.50;;;9.90;;
18076;SDS011;9165;45.714;11.362;2022-10-04T13:44:44;24.50;;;11.67;;
18076;SDS011;9165;45.714;11.362;2022-10-04T13:47:23;14.20;;;10.57;;
18076;SDS011;9165;45.714;11.362;2022-10-04T13:49:56;14.10;;;9.67;;
18076;SDS011;9165;45.714;11.362;2022-10-04T13:52:34;13.77;;;11.67;;
18076;SDS011;9165;45.714;11.362;2022-10-04T13:55:36;22.27;;;10.97;;
18076;SDS011;9165;45.714;11.362;2022-10-04T13:58:27;21.10;;;12.20;;
18076;SDS011;9165;45.714;11.362;2022-10-04T14:01:05;15.87;;;11.00;;
18076;SDS011;9165;45.714;11.362;2022-10-04T14:03:46;12.47;;;10.30;;
18076;SDS011;9165;45.714;11.362;2022-10-04T14:09:09;16.23;;;11.20;;
18076;SDS011;9165;45.714;11.362;2022-10-04T14:11:49;11.87;;;10.20;;
18076;SDS011;9165;45.714;11.362;2022-10-04T14:20:35;102.60;;;61.50;;
18076;SDS011;9165;45.714;11.362;2022-10-04T14:23:10;15.87;;;11.00;;
18076;SDS011;9165;45.714;11.362;2022-10-04T14:26:00;12.07;;;10.70;;
18076;SDS011;9165;45.714;11.362;2022-10-04T14:31:30;16.63;;;11.80;;
18076;SDS011;9165;45.714;11.362;2022-10-04T14:34:14;15.00;;;10.73;;
18076;SDS011;9165;45.714;11.362;2022-10-04T14:39:46;13.23;;;9.67;;
18076;SDS011;9165;45.714;11.362;2022-10-04T14:42:22;20.87;;;9.97;;
18076;SDS011;9165;45.714;11.362;2022-10-04T14:50:25;16.97;;;11.83;;
18076;SDS011;9165;45.714;11.362;2022-10-04T14:52:59;11.60;;;9.80;;
18076;SDS011;9165;45.714;11.362;2022-10-04T14:55:36;10.60;;;8.70;;
18076;SDS011;9165;45.714;11.362;2022-10-04T14:58:12;12.67;;;9.00;;
18076;SDS011;9165;45.714;11.362;2022-10-04T15:00:53;14.27;;;9.63;;
18076;SDS011;9165;45.714;11.362;2022-10-04T15:03:33;13.97;;;9.83;;
18076;SDS011;9165;45.714;11.362;2022-10-04T15:06:04;10.50;;;9.40;;
18076;SDS011;9165;45.714;11.362;2022-10-04T15:11:43;25.53;;;18.67;;
18076;SDS011;9165;45.714;11.362;2022-10-04T15:14:35;15.23;;;10.73;;
18076;SDS011;9165;45.714;11.362;2022-10-04T15:17:04;13.37;;;11.17;;
18076;SDS011;9165;45.714;11.362;2022-10-04T15:19:36;14.17;;;9.83;;
18076;SDS011;9165;45.714;11.362;2022-10-04T15:22:10;11.87;;;9.93;;
18076;SDS011;9165;45.714;11.362;2022-10-04T15:24:45;20.03;;;9.47;;
18076;SDS011;9165;45.714;11.362;2022-10-04T15:27:39;15.73;;;10.20;;
18076;SDS011;9165;45.714;11.362;2022-10-04T15:30:12;11.00;;;9.20;;
18076;SDS011;9165;45.714;11.362;2022-10-04T15:32:44;12.53;;;9.10;;
18076;SDS011;9165;45.714;11.362;2022-10-04T15:35:18;15.53;;;9.87;;
18076;SDS011;9165;45.714;11.362;2022-10-04T15:37:49;18.23;;;10.03;;
18076;SDS011;9165;45.714;11.362;2022-10-04T15:40:27;11.53;;;8.77;;
18076;SDS011;9165;45.714;11.362;2022-10-04T15:48:35;13.63;;;9.50;;
18076;SDS011;9165;45.714;11.362;2022-10-04T15:51:06;15.80;;;10.53;;
18076;SDS011;9165;45.714;11.362;2022-10-04T15:53:41;19.03;;;11.97;;
18076;SDS011;9165;45.714;11.362;2022-10-04T15:56:10;14.73;;;10.30;;
18076;SDS011;9165;45.714;11.362;2022-10-04T15:58:44;12.00;;;9.20;;
18076;SDS011;9165;45.714;11.362;2022-10-04T16:01:20;10.93;;;8.40;;
18076;SDS011;9165;45.714;11.362;2022-10-04T16:04:04;14.67;;;8.63;;
18076;SDS011;9165;45.714;11.362;2022-10-04T16:06:41;12.37;;;7.47;;
18076;SDS011;9165;45.714;11.362;2022-10-04T16:09:17;8.97;;;7.23;;
18076;SDS011;9165;45.714;11.362;2022-10-04T16:11:55;11.20;;;6.60;;
18076;SDS011;9165;45.714;11.362;2022-10-04T16:20:14;6.73;;;6.00;;
18076;SDS011;9165;45.714;11.362;2022-10-04T16:25:35;8.37;;;7.43;;
18076;SDS011;9165;45.714;11.362;2022-10-04T16:28:05;14.47;;;7.93;;
18076;SDS011;9165;45.714;11.362;2022-10-04T16:30:33;10.57;;;6.90;;
18076;SDS011;9165;45.714;11.362;2022-10-04T16:33:12;9.70;;;7.33;;
18076;SDS011;9165;45.714;11.362;2022-10-04T16:35:48;15.23;;;7.73;;
18076;SDS011;9165;45.714;11.362;2022-10-04T16:38:19;12.97;;;8.50;;
18076;SDS011;9165;45.714;11.362;2022-10-04T16:40:55;14.17;;;11.30;;
18076;SDS011;9165;45.714;11.362;2022-10-04T16:43:25;12.13;;;8.33;;
18076;SDS011;9165;45.714;11.362;2022-10-04T16:46:16;11.73;;;8.17;;
18076;SDS011;9165;45.714;11.362;2022-10-04T16:48:48;19.47;;;8.87;;
18076;SDS011;9165;45.714;11.362;2022-10-04T16:51:28;9.23;;;8.30;;
18076;SDS011;9165;45.714;11.362;2022-10-04T16:53:57;18.50;;;9.10;;
18076;SDS011;9165;45.714;11.362;2022-10-04T16:56:29;18.43;;;9.73;;
18076;SDS011;9165;45.714;11.362;2022-10-04T16:58:58;14.23;;;9.57;;
18076;SDS011;9165;45.714;11.362;2022-10-04T17:04:15;15.57;;;9.33;;
18076;SDS011;9165;45.714;11.362;2022-10-04T17:06:45;12.80;;;9.27;;
18076;SDS011;9165;45.714;11.362;2022-10-04T17:09:16;19.70;;;9.83;;
18076;SDS011;9165;45.714;11.362;2022-10-04T17:11:47;13.83;;;10.33;;
18076;SDS011;9165;45.714;11.362;2022-10-04T17:17:04;13.63;;;9.90;;
18076;SDS011;9165;45.714;11.362;2022-10-04T17:19:37;17.03;;;10.67;;
18076;SDS011;9165;45.714;11.362;2022-10-04T17:22:13;14.23;;;10.17;;
18076;SDS011;9165;45.714;11.362;2022-10-04T17:24:51;11.97;;;9.77;;
18076;SDS011;9165;45.714;11.362;2022-10-04T17:27:25;16.30;;;9.83;;
18076;SDS011;9165;45.714;11.362;2022-10-04T17:29:56;13.17;;;10.57;;
18076;SDS011;9165;45.714;11.362;2022-10-04T17:32:29;14.43;;;10.43;;
18076;SDS011;9165;45.714;11.362;2022-10-04T17:35:02;16.70;;;10.73;;
18076;SDS011;9165;45.714;11.362;2022-10-04T17:37:35;13.40;;;10.53;;
18076;SDS011;9165;45.714;11.362;2022-10-04T17:40:16;13.67;;;10.53;;
18076;SDS011;9165;45.714;11.362;2022-10-04T17:42:46;12.90;;;10.40;;
18076;SDS011;9165;45.714;11.362;2022-10-04T17:45:21;12.47;;;10.27;;